This is the latest recevied weather packets stored in our database for station/object BAGASKAR. If no packets are shown the sender has not sent any weather packets the latest 10 day(s).
| Time | Temp. | Humidity | Pressure | Rain* | Wind** | Luminosity | Snow |
|---|---|---|---|---|---|---|---|
| 1777666020 | 5.56° C | 100% | 1015.8 hPa | - | - | - | - |
| 1777663620 | 5.56° C | 100% | 1016.2 hPa | - | - | - | - |
| 1777662420 | 6.11° C | 100% | 1016.2 hPa | - | - | - | - |
| 1777661220 | 6.11° C | 100% | 1016.5 hPa | - | - | - | - |
| 1777660020 | 6.67° C | 100% | 1016.6 hPa | - | - | - | - |
| 1777658820 | 7.22° C | 97% | 1016.6 hPa | - | - | - | - |
| 1777655220 | 8.33° C | 92% | 1016.9 hPa | - | - | - | - |
| 1777652819 | 8.89° C | 87% | 1017.3 hPa | - | - | - | - |
| 1777651619 | 8.89° C | 87% | 1017.5 hPa | - | - | - | - |
| 1777650420 | 9.44° C | 83% | 1017.7 hPa | - | - | - | - |
| 1777649219 | 9.44° C | 84% | 1017.7 hPa | - | - | - | - |
| 1777648019 | 9.44° C | 81% | 1017.9 hPa | - | - | - | - |
| 1777646819 | 9.44° C | 83% | 1018 hPa | - | - | - | - |
| 1777645619 | 10.56° C | 77% | 1018.1 hPa | - | - | - | - |
| 1777644419 | 10.56° C | 77% | 1018.3 hPa | - | - | - | - |
| 1777643219 | 10.56° C | 73% | 1018.4 hPa | - | - | - | - |
| 1777642020 | 11.11° C | 74% | 1018.6 hPa | - | - | - | - |
| 1777640819 | 11.11° C | 72% | 1018.9 hPa | - | - | - | - |
| 1777639619 | 11.67° C | 68% | 1019 hPa | - | - | - | - |
| 1777638419 | 11.67° C | 68% | 1019.3 hPa | - | - | - | - |
| 1777634819 | 10° C | 82% | 1019.9 hPa | - | - | - | - |
| 1777633618 | 9.44° C | 83% | 1020 hPa | - | - | - | - |
| 1777632418 | 10° C | 81% | 1020.1 hPa | - | - | - | - |
| 1777631218 | 10° C | 80% | 1020.3 hPa | - | - | - | - |
| 1777630018 | 10° C | 82% | 1020.4 hPa | - | - | - | - |
* Rain since midnight (hover to see other rain measurements)
** Current wind speed in m/s (hover to see current wind gust speed)